Share

Supai, AZ (86435)

9:41 PM MST on April 23, 2014 (GMT -0700)
Grand Canyon National Park (KGCN) Elev 6608 ft | 35.95 °N, 112.15 °W | Change Station

Current weather conditions updated 47 minutes ago

Clear
Clear
32 °F
Feels Like 32 °F
N
0
Wind Variable Wind from North
Sunrise 5:46 AM
Sunset 7:10 PM
Moon Waning Crescent

Tomorrow is forecast to be Much Warmer than today.

Pressure 29.98 in
Visibility 10.0 miles
Clouds Clear
Dew Point 9 °F
Humidity 38%
Rainfall 0.00 in
Snow Depth Not available.
UV 0 out of 16
Pollen 8.10 out of 12
Air Quality Not available.
Flu Activity Local Activity
METAR KGCN 240354Z 00000KT 10SM CLR 00/M13 A3007 RMK AO2 SLP151 T00001128

More Conditions Fewer Conditions

Pressure 29.98 in
Visibility 10.0 miles
Clouds Clear
Dew Point 9 °F
Humidity 38%
Rainfall 0.00 in
Snow Depth Not available.
UV 0 out of 16
Pollen 8.10 out of 12
Air Quality Not available.
Flu Activity Local Activity
METAR KGCN 240354Z 00000KT 10SM CLR 00/M13 A3007 RMK AO2 SLP151 T00001128

More Conditions Fewer Conditions

10-Day Weather Forecast

Almanac

Astronomy

Apr. 23, 2014 Rise Set
Actual Time 5:46 AM MST 7:10 PM MST
Civil Twilight 5:19 AM MST 7:37 PM MST
Nautical Twilight 4:47 AM MST 8:10 PM MST
Astronomical Twilight 4:13 AM MST 8:44 PM MST
Moon 2:09 AM MST (4/23) 1:33 PM MST (4/23)
Length of Visible Light 14h 18m
Length of Day
13h 24m
Tomorrow will be 2m 4s longer.
Waning Crescent, 29% of the Moon is Illuminated
Apr 24
Waning Crescent
Apr 29
New
May 6
First Quarter
May 14
Full
May 21
Last Quarter

Yesterday's Extremes

State Highs State Lows

Community

  • Stacked
    Stacked
  • Balance
    Balance
  • Nestled In
    Nestled In
  • Stunning Sunrise
    Stunning Sunrise
  • spring flowers
    spring flowers

WunderPhotos

Upload Photos

1,704,562 photos uploaded!

WunderBlogs® & News

Nearby

Snow Depth

Station Depth Elevation
Snowslide Canyon 2 in 9730 ft
White Horse Lake 0 in 7180 ft
Mormon Mountain 0 in 7500 ft
Happy Jack 0 in 7630 ft
Baker Butte 0 in 7300 ft

Coastal Water Temperatures

Place Temperature
No Stations Reporting

Earthquake Activity

City Distance Mag. Time & Date
No recent earthquake activity has been reported nearby.
Minimum magnitude displayed is 2.5.

Nearby Weather Stations

Station Location Temp. Windchill Dew Point Humidity Wind Precip. Elev Updated Type
RAWS TUSAYAN AZ, Grand Canyon, AZ 41 °F 41 °F 6 °F 23% North  at  0 mph 0.00 in / hr 6569 ft 8:08 PM MST MADIS
Grand Canyon, AZ 42.1 °F 42 °F 8 °F 24% NW  at  0.0 mph 0.00 in / hr 6991 ft 9:41 PM MST Rapid Fire

Show More Stations Show Fewer Stations

What do you think?

We're not finished. Please let us know what you like, what you don't like, and what you are still missing.